MAPA DE AEROPUERTO

INFORMACIÓN METAR y TAF


Deprecated: The each() function is deprecated. This message will be suppressed on further calls in /home/customer/www/clickair-va.com/public_html/VAM/vam/helpers/get_metar.php on line 20
METAR FOR TNCM
ADDS - METARS form results

(0314 UTC 25 May 2022)
Data provider http://aviationweather.gov/metar/data/
 
Forecast for: TNCM (ST MAARTEN JULIA, SX)
Text: TNCM 242200Z 2500/2524 08010KT 9999 SCT020
Forecast period: 0000 UTC 25 May 2022 to 0000 UTC 26 May 2022
Forecast type: FROM: standard forecast or significant change
Winds: from the E (80 degrees) at 12 MPH (10 knots; 5.1 m/s)
Visibility: 6 or more miles (10+ km)
Ceiling: at least 12,000 feet AGL
Clouds: scattered clouds at 2000 feet AGL
Weather: no significant weather forecast for this period
Text: PROB30
Forecast period: 2000 UTC 25 May 2022 to 0000 UTC 26 May 2022
Forecast type: TEMPORARY: The following changes expected for less than half the time period
Visibility: 4 miles (7 km)
Ceiling: 1600 feet AGL
Clouds: broken clouds at 1600 feet AGL
scattered clouds at 3500 feet AGL
Weather: SHRA  (rain showers)